Terminal Aerodrome Forecast
Issued by NWS

Home | Current Version | Previous Version | Text Only | Print | Product List | Glossary On
Versions: 1 2 3 4 5 6 7 8 9 10 11 12 13
645
FTUS42 TJSJ 041733
TAFJBQ
TAF
TJBQ 041733Z 0418/0518 03008KT P6SM VCSH SCT025
     FM042300 VRB03KT P6SM FEW025
     FM051400 06012KT P6SM SCT025
      AMD NOT SKED 0502/0511=

USA.gov is the U.S. government's official web portal to all federal, state and local government web resources and services.